sensor_id;sensor_type;location;lat;lon;timestamp;pressure;altitude;pressure_sealevel;temperature;humidity
51926;BME280;37952;51.938;15.480;2023-09-19T00:01:40;99007.50;;;18.94;73.37
51926;BME280;37952;51.938;15.480;2023-09-19T00:04:43;99007.70;;;18.90;72.99
51926;BME280;37952;51.938;15.480;2023-09-19T00:07:47;99011.15;;;18.88;73.24
51926;BME280;37952;51.938;15.480;2023-09-19T00:10:50;99013.39;;;18.87;73.05
51926;BME280;37952;51.938;15.480;2023-09-19T00:13:53;99014.00;;;18.85;72.91
51926;BME280;37952;51.938;15.480;2023-09-19T00:16:56;99009.14;;;18.82;72.96
51926;BME280;37952;51.938;15.480;2023-09-19T00:19:59;99008.23;;;18.78;73.10
51926;BME280;37952;51.938;15.480;2023-09-19T00:23:09;99001.93;;;18.76;73.04
51926;BME280;37952;51.938;15.480;2023-09-19T00:26:12;99008.06;;;18.77;72.99
51926;BME280;37952;51.938;15.480;2023-09-19T00:29:15;99012.91;;;18.75;72.82
51926;BME280;37952;51.938;15.480;2023-09-19T00:32:19;99010.46;;;18.72;72.89
51926;BME280;37952;51.938;15.480;2023-09-19T00:35:22;99010.23;;;18.73;72.83
51926;BME280;37952;51.938;15.480;2023-09-19T00:38:28;99012.69;;;18.74;72.82
51926;BME280;37952;51.938;15.480;2023-09-19T00:41:34;99020.04;;;18.70;73.04
51926;BME280;37952;51.938;15.480;2023-09-19T00:44:40;99015.21;;;18.66;73.15
51926;BME280;37952;51.938;15.480;2023-09-19T00:47:46;99016.74;;;18.66;73.25
51926;BME280;37952;51.938;15.480;2023-09-19T00:50:52;99010.55;;;18.63;73.22
51926;BME280;37952;51.938;15.480;2023-09-19T00:53:56;99010.09;;;18.58;73.40
51926;BME280;37952;51.938;15.480;2023-09-19T00:57:02;99007.60;;;18.52;73.70
51926;BME280;37952;51.938;15.480;2023-09-19T01:00:07;98997.55;;;18.51;73.85
51926;BME280;37952;51.938;15.480;2023-09-19T01:03:11;98998.86;;;18.49;73.75
51926;BME280;37952;51.938;15.480;2023-09-19T01:06:16;98991.72;;;18.46;74.16
51926;BME280;37952;51.938;15.480;2023-09-19T01:09:20;98986.50;;;18.43;74.16
51926;BME280;37952;51.938;15.480;2023-09-19T01:15:51;98976.46;;;18.43;74.16
51926;BME280;37952;51.938;15.480;2023-09-19T01:22:56;98981.36;;;18.39;74.09
51926;BME280;37952;51.938;15.480;2023-09-19T01:29:26;98980.48;;;18.40;73.97
51926;BME280;37952;51.938;15.480;2023-09-19T01:32:38;98983.91;;;18.38;73.83
51926;BME280;37952;51.938;15.480;2023-09-19T01:35:42;98986.09;;;18.38;74.16
51926;BME280;37952;51.938;15.480;2023-09-19T01:38:45;98984.84;;;18.38;73.97
51926;BME280;37952;51.938;15.480;2023-09-19T01:45:32;98973.92;;;18.31;74.01
51926;BME280;37952;51.938;15.480;2023-09-19T01:48:58;98970.40;;;18.26;74.19
51926;BME280;37952;51.938;15.480;2023-09-19T01:52:12;98967.91;;;18.22;74.39
51926;BME280;37952;51.938;15.480;2023-09-19T01:55:26;98970.88;;;18.18;74.25
51926;BME280;37952;51.938;15.480;2023-09-19T01:58:35;98973.70;;;18.13;74.35
51926;BME280;37952;51.938;15.480;2023-09-19T02:01:42;98973.11;;;18.10;74.73
51926;BME280;37952;51.938;15.480;2023-09-19T02:04:48;98971.06;;;18.09;74.62
51926;BME280;37952;51.938;15.480;2023-09-19T02:07:52;98967.96;;;18.04;74.68
51926;BME280;37952;51.938;15.480;2023-09-19T02:10:55;98960.67;;;18.04;74.50
51926;BME280;37952;51.938;15.480;2023-09-19T02:13:58;98952.52;;;18.04;74.67
51926;BME280;37952;51.938;15.480;2023-09-19T02:17:03;98951.10;;;18.00;74.48
51926;BME280;37952;51.938;15.480;2023-09-19T02:20:11;98950.09;;;18.00;74.42
51926;BME280;37952;51.938;15.480;2023-09-19T02:23:17;98957.92;;;17.98;74.72
51926;BME280;37952;51.938;15.480;2023-09-19T02:26:20;98966.10;;;17.97;74.80
51926;BME280;37952;51.938;15.480;2023-09-19T02:29:23;98965.69;;;17.94;74.78
51926;BME280;37952;51.938;15.480;2023-09-19T02:32:27;98972.19;;;17.89;74.80
51926;BME280;37952;51.938;15.480;2023-09-19T02:35:30;98976.29;;;17.90;75.03
51926;BME280;37952;51.938;15.480;2023-09-19T02:38:38;98973.47;;;17.91;74.75
51926;BME280;37952;51.938;15.480;2023-09-19T02:41:41;98974.00;;;17.91;74.78
51926;BME280;37952;51.938;15.480;2023-09-19T02:44:46;98968.13;;;17.91;74.75
51926;BME280;37952;51.938;15.480;2023-09-19T02:47:50;98973.43;;;17.90;74.98
51926;BME280;37952;51.938;15.480;2023-09-19T02:50:53;98977.87;;;17.88;75.14
51926;BME280;37952;51.938;15.480;2023-09-19T02:53:56;98972.57;;;17.86;75.14
51926;BME280;37952;51.938;15.480;2023-09-19T02:56:59;98977.23;;;17.84;75.02
51926;BME280;37952;51.938;15.480;2023-09-19T03:00:03;98978.66;;;17.86;75.11
51926;BME280;37952;51.938;15.480;2023-09-19T03:03:07;98977.70;;;17.88;74.87
51926;BME280;37952;51.938;15.480;2023-09-19T03:06:11;98976.13;;;17.89;74.75
51926;BME280;37952;51.938;15.480;2023-09-19T03:09:15;98976.08;;;17.88;74.74
51926;BME280;37952;51.938;15.480;2023-09-19T03:12:18;98979.38;;;17.87;74.86
51926;BME280;37952;51.938;15.480;2023-09-19T03:15:22;98981.00;;;17.87;75.10
51926;BME280;37952;51.938;15.480;2023-09-19T03:18:25;98982.10;;;17.85;74.89
51926;BME280;37952;51.938;15.480;2023-09-19T03:21:29;98978.42;;;17.83;75.06
51926;BME280;37952;51.938;15.480;2023-09-19T03:24:33;98980.85;;;17.81;75.19
51926;BME280;37952;51.938;15.480;2023-09-19T03:27:39;98975.34;;;17.83;75.19
51926;BME280;37952;51.938;15.480;2023-09-19T03:30:42;98973.50;;;17.84;74.99
51926;BME280;37952;51.938;15.480;2023-09-19T03:33:45;98972.42;;;17.80;75.26
51926;BME280;37952;51.938;15.480;2023-09-19T03:36:47;98973.02;;;17.78;75.45
51926;BME280;37952;51.938;15.480;2023-09-19T03:39:50;98978.55;;;17.76;75.42
51926;BME280;37952;51.938;15.480;2023-09-19T03:42:53;98977.87;;;17.74;75.44
51926;BME280;37952;51.938;15.480;2023-09-19T03:45:56;98976.10;;;17.72;75.23
51926;BME280;37952;51.938;15.480;2023-09-19T03:49:00;98979.63;;;17.71;75.36
51926;BME280;37952;51.938;15.480;2023-09-19T03:52:03;98981.90;;;17.71;75.59
51926;BME280;37952;51.938;15.480;2023-09-19T03:55:06;98979.73;;;17.70;75.30
51926;BME280;37952;51.938;15.480;2023-09-19T03:58:09;98983.20;;;17.69;75.57
51926;BME280;37952;51.938;15.480;2023-09-19T04:01:12;98984.58;;;17.70;75.52
51926;BME280;37952;51.938;15.480;2023-09-19T04:04:16;98983.51;;;17.71;75.60
51926;BME280;37952;51.938;15.480;2023-09-19T04:07:21;98984.27;;;17.69;75.64
51926;BME280;37952;51.938;15.480;2023-09-19T04:10:25;98982.20;;;17.65;75.80
51926;BME280;37952;51.938;15.480;2023-09-19T04:13:28;98988.11;;;17.63;75.80
51926;BME280;37952;51.938;15.480;2023-09-19T04:16:31;98991.30;;;17.65;75.89
51926;BME280;37952;51.938;15.480;2023-09-19T04:19:34;98992.91;;;17.65;75.90
51926;BME280;37952;51.938;15.480;2023-09-19T04:22:38;98999.14;;;17.63;75.88
51926;BME280;37952;51.938;15.480;2023-09-19T04:25:42;99004.88;;;17.63;75.95
51926;BME280;37952;51.938;15.480;2023-09-19T04:28:45;99017.90;;;17.61;76.19
51926;BME280;37952;51.938;15.480;2023-09-19T04:31:48;99010.02;;;17.60;76.00
51926;BME280;37952;51.938;15.480;2023-09-19T04:34:51;99013.49;;;17.60;76.03
51926;BME280;37952;51.938;15.480;2023-09-19T04:37:57;99015.44;;;17.57;76.37
51926;BME280;37952;51.938;15.480;2023-09-19T04:40:59;99013.69;;;17.59;76.12
51926;BME280;37952;51.938;15.480;2023-09-19T04:44:02;99021.90;;;17.60;76.08
51926;BME280;37952;51.938;15.480;2023-09-19T04:47:06;99023.11;;;17.59;76.15
51926;BME280;37952;51.938;15.480;2023-09-19T04:50:09;99023.37;;;17.60;76.14
51926;BME280;37952;51.938;15.480;2023-09-19T04:53:17;99017.69;;;17.63;75.97
51926;BME280;37952;51.938;15.480;2023-09-19T04:56:22;99026.96;;;17.63;76.20
51926;BME280;37952;51.938;15.480;2023-09-19T04:59:26;99028.05;;;17.59;76.36
51926;BME280;37952;51.938;15.480;2023-09-19T05:02:30;99025.70;;;17.59;76.33
51926;BME280;37952;51.938;15.480;2023-09-19T05:05:34;99030.43;;;17.59;76.51
51926;BME280;37952;51.938;15.480;2023-09-19T05:08:37;99042.10;;;17.61;76.45
51926;BME280;37952;51.938;15.480;2023-09-19T05:11:41;99038.45;;;17.60;76.25
51926;BME280;37952;51.938;15.480;2023-09-19T05:14:44;99041.63;;;17.59;76.41
51926;BME280;37952;51.938;15.480;2023-09-19T05:17:51;99044.69;;;17.58;76.33
51926;BME280;37952;51.938;15.480;2023-09-19T05:21:02;99042.98;;;17.60;76.43
51926;BME280;37952;51.938;15.480;2023-09-19T05:24:05;99039.31;;;17.61;76.25
51926;BME280;37952;51.938;15.480;2023-09-19T05:27:12;99043.77;;;17.64;76.37
51926;BME280;37952;51.938;15.480;2023-09-19T05:30:15;99061.33;;;17.63;76.54
51926;BME280;37952;51.938;15.480;2023-09-19T05:33:19;99055.66;;;17.66;76.30
51926;BME280;37952;51.938;15.480;2023-09-19T05:36:22;99052.02;;;17.69;76.27
51926;BME280;37952;51.938;15.480;2023-09-19T05:39:25;99055.74;;;17.74;76.13
51926;BME280;37952;51.938;15.480;2023-09-19T05:42:28;99061.70;;;17.75;76.41
51926;BME280;37952;51.938;15.480;2023-09-19T05:45:31;99057.29;;;17.76;76.30
51926;BME280;37952;51.938;15.480;2023-09-19T05:48:34;99063.77;;;17.79;75.98
51926;BME280;37952;51.938;15.480;2023-09-19T05:51:37;99072.74;;;17.83;76.09
51926;BME280;37952;51.938;15.480;2023-09-19T05:54:40;99077.19;;;17.85;75.96
51926;BME280;37952;51.938;15.480;2023-09-19T05:57:43;99079.73;;;17.86;76.01
51926;BME280;37952;51.938;15.480;2023-09-19T06:00:46;99085.11;;;17.78;76.17
51926;BME280;37952;51.938;15.480;2023-09-19T06:03:50;99092.84;;;17.69;76.37
51926;BME280;37952;51.938;15.480;2023-09-19T06:06:55;99101.09;;;17.68;76.62
51926;BME280;37952;51.938;15.480;2023-09-19T06:09:58;99108.84;;;17.69;76.78
51926;BME280;37952;51.938;15.480;2023-09-19T06:13:04;99114.30;;;17.66;76.97
51926;BME280;37952;51.938;15.480;2023-09-19T06:16:08;99118.45;;;17.57;77.34
51926;BME280;37952;51.938;15.480;2023-09-19T06:19:12;99122.74;;;17.51;77.45
51926;BME280;37952;51.938;15.480;2023-09-19T06:22:16;99125.38;;;17.55;77.49
51926;BME280;37952;51.938;15.480;2023-09-19T06:25:22;99128.24;;;17.59;77.26
51926;BME280;37952;51.938;15.480;2023-09-19T06:28:25;99132.08;;;17.63;77.44
51926;BME280;37952;51.938;15.480;2023-09-19T06:31:29;99133.02;;;17.66;77.55
51926;BME280;37952;51.938;15.480;2023-09-19T06:34:34;99137.76;;;17.69;77.14
51926;BME280;37952;51.938;15.480;2023-09-19T06:37:38;99139.41;;;17.75;77.17
51926;BME280;37952;51.938;15.480;2023-09-19T06:40:44;99146.77;;;17.77;76.94
51926;BME280;37952;51.938;15.480;2023-09-19T06:43:47;99147.13;;;17.80;76.95
51926;BME280;37952;51.938;15.480;2023-09-19T06:46:50;99160.20;;;17.87;76.94
51926;BME280;37952;51.938;15.480;2023-09-19T06:49:54;99169.70;;;17.92;76.64
51926;BME280;37952;51.938;15.480;2023-09-19T06:52:57;99171.11;;;17.94;76.59
51926;BME280;37952;51.938;15.480;2023-09-19T06:56:02;99175.23;;;17.86;77.01
51926;BME280;37952;51.938;15.480;2023-09-19T06:59:05;99187.78;;;17.87;76.84
51926;BME280;37952;51.938;15.480;2023-09-19T07:02:09;99189.95;;;17.85;76.66
51926;BME280;37952;51.938;15.480;2023-09-19T07:05:12;99198.02;;;17.74;76.68
51926;BME280;37952;51.938;15.480;2023-09-19T07:08:15;99200.27;;;17.73;77.09
51926;BME280;37952;51.938;15.480;2023-09-19T07:11:18;99207.44;;;17.74;77.38
51926;BME280;37952;51.938;15.480;2023-09-19T07:14:21;99208.27;;;17.69;77.51
51926;BME280;37952;51.938;15.480;2023-09-19T07:17:24;99225.42;;;17.69;77.51
51926;BME280;37952;51.938;15.480;2023-09-19T07:20:26;99220.84;;;17.70;77.54
51926;BME280;37952;51.938;15.480;2023-09-19T07:23:31;99223.60;;;17.76;77.41
51926;BME280;37952;51.938;15.480;2023-09-19T07:26:37;99231.58;;;17.79;77.04
51926;BME280;37952;51.938;15.480;2023-09-19T07:29:40;99230.18;;;17.80;77.21
51926;BME280;37952;51.938;15.480;2023-09-19T07:32:43;99235.98;;;17.88;77.12
51926;BME280;37952;51.938;15.480;2023-09-19T07:35:47;99233.94;;;17.89;76.95
51926;BME280;37952;51.938;15.480;2023-09-19T07:38:50;99235.05;;;17.87;76.73
51926;BME280;37952;51.938;15.480;2023-09-19T07:41:53;99240.20;;;17.84;76.76
51926;BME280;37952;51.938;15.480;2023-09-19T07:44:56;99240.25;;;17.81;76.54
51926;BME280;37952;51.938;15.480;2023-09-19T07:47:59;99242.52;;;17.80;76.62
51926;BME280;37952;51.938;15.480;2023-09-19T07:51:08;99247.81;;;17.80;76.48
51926;BME280;37952;51.938;15.480;2023-09-19T07:54:11;99249.81;;;17.89;76.54
51926;BME280;37952;51.938;15.480;2023-09-19T07:57:14;99247.98;;;17.95;76.24
51926;BME280;37952;51.938;15.480;2023-09-19T08:00:17;99254.38;;;17.90;76.26
51926;BME280;37952;51.938;15.480;2023-09-19T08:03:20;99249.00;;;17.92;76.15
51926;BME280;37952;51.938;15.480;2023-09-19T08:06:23;99254.36;;;17.97;76.00
51926;BME280;37952;51.938;15.480;2023-09-19T08:09:26;99247.16;;;17.92;75.39
51926;BME280;37952;51.938;15.480;2023-09-19T08:12:30;99247.73;;;17.98;75.22
51926;BME280;37952;51.938;15.480;2023-09-19T08:15:33;99246.44;;;18.02;74.99
51926;BME280;37952;51.938;15.480;2023-09-19T08:18:37;99252.72;;;18.12;74.86
51926;BME280;37952;51.938;15.480;2023-09-19T08:21:43;99253.18;;;18.18;74.27
51926;BME280;37952;51.938;15.480;2023-09-19T08:24:49;99253.63;;;18.28;73.88
51926;BME280;37952;51.938;15.480;2023-09-19T08:27:52;99252.80;;;18.40;73.50
51926;BME280;37952;51.938;15.480;2023-09-19T08:30:55;99264.73;;;18.54;72.83
51926;BME280;37952;51.938;15.480;2023-09-19T08:33:58;99265.83;;;18.49;71.20
51926;BME280;37952;51.938;15.480;2023-09-19T08:37:02;99260.81;;;18.56;71.61
51926;BME280;37952;51.938;15.480;2023-09-19T08:40:05;99259.20;;;18.67;71.16
51926;BME280;37952;51.938;15.480;2023-09-19T08:43:21;99264.42;;;18.61;69.57
51926;BME280;37952;51.938;15.480;2023-09-19T08:46:25;99271.05;;;18.54;69.62
51926;BME280;37952;51.938;15.480;2023-09-19T08:50:07;99274.28;;;18.41;69.67
51926;BME280;37952;51.938;15.480;2023-09-19T08:53:26;99278.84;;;18.33;70.20
51926;BME280;37952;51.938;15.480;2023-09-19T08:56:31;99279.67;;;18.37;70.19
51926;BME280;37952;51.938;15.480;2023-09-19T08:59:39;99279.59;;;18.41;70.28
51926;BME280;37952;51.938;15.480;2023-09-19T09:02:44;99284.10;;;18.50;69.87
51926;BME280;37952;51.938;15.480;2023-09-19T09:05:50;99287.33;;;18.57;69.60
51926;BME280;37952;51.938;15.480;2023-09-19T09:08:53;99295.14;;;18.59;68.92
51926;BME280;37952;51.938;15.480;2023-09-19T09:11:57;99296.73;;;18.61;68.75
51926;BME280;37952;51.938;15.480;2023-09-19T09:15:02;99293.77;;;18.69;68.96
51926;BME280;37952;51.938;15.480;2023-09-19T09:18:06;99312.99;;;18.68;68.19
51926;BME280;37952;51.938;15.480;2023-09-19T09:21:10;99313.60;;;18.42;66.47
51926;BME280;37952;51.938;15.480;2023-09-19T09:24:31;99319.40;;;18.31;66.20
51926;BME280;37952;51.938;15.480;2023-09-19T09:27:40;99324.77;;;18.23;65.87
51926;BME280;37952;51.938;15.480;2023-09-19T09:30:43;99327.09;;;18.11;66.40
51926;BME280;37952;51.938;15.480;2023-09-19T09:33:53;99335.66;;;17.99;66.23
51926;BME280;37952;51.938;15.480;2023-09-19T09:36:56;99333.41;;;17.99;66.16
51926;BME280;37952;51.938;15.480;2023-09-19T09:40:01;99337.39;;;17.96;66.09
51926;BME280;37952;51.938;15.480;2023-09-19T09:43:38;99338.58;;;17.95;66.14
51926;BME280;37952;51.938;15.480;2023-09-19T09:46:44;99336.42;;;18.02;66.44
51926;BME280;37952;51.938;15.480;2023-09-19T09:49:57;99338.96;;;18.10;66.49
51926;BME280;37952;51.938;15.480;2023-09-19T09:53:24;99343.42;;;18.19;66.66
51926;BME280;37952;51.938;15.480;2023-09-19T09:56:31;99340.21;;;18.31;66.73
51926;BME280;37952;51.938;15.480;2023-09-19T09:59:47;99334.16;;;18.49;66.97
51926;BME280;37952;51.938;15.480;2023-09-19T10:02:50;99339.69;;;18.54;66.45
51926;BME280;37952;51.938;15.480;2023-09-19T10:05:54;99337.10;;;18.58;66.50
51926;BME280;37952;51.938;15.480;2023-09-19T10:09:04;99330.80;;;18.56;66.36
51926;BME280;37952;51.938;15.480;2023-09-19T10:12:16;99320.70;;;18.62;66.66
51926;BME280;37952;51.938;15.480;2023-09-19T10:15:20;99316.38;;;18.72;66.84
51926;BME280;37952;51.938;15.480;2023-09-19T10:18:25;99316.73;;;18.89;66.58
51926;BME280;37952;51.938;15.480;2023-09-19T10:21:28;99323.48;;;18.93;66.08
51926;BME280;37952;51.938;15.480;2023-09-19T10:24:33;99327.55;;;18.88;66.48
51926;BME280;37952;51.938;15.480;2023-09-19T10:27:42;99320.35;;;18.99;66.68
51926;BME280;37952;51.938;15.480;2023-09-19T10:30:48;99324.70;;;19.12;65.95
51926;BME280;37952;51.938;15.480;2023-09-19T10:33:53;99323.42;;;19.22;65.72
51926;BME280;37952;51.938;15.480;2023-09-19T10:36:58;99319.88;;;19.32;65.40
51926;BME280;37952;51.938;15.480;2023-09-19T10:40:06;99324.14;;;19.34;65.26
51926;BME280;37952;51.938;15.480;2023-09-19T10:43:20;99322.27;;;19.28;64.11
51926;BME280;37952;51.938;15.480;2023-09-19T10:46:23;99325.45;;;19.33;62.79
51926;BME280;37952;51.938;15.480;2023-09-19T10:49:28;99338.12;;;19.28;60.95
51926;BME280;37952;51.938;15.480;2023-09-19T10:52:31;99339.38;;;19.25;59.32
51926;BME280;37952;51.938;15.480;2023-09-19T10:55:37;99345.91;;;19.26;58.34
51926;BME280;37952;51.938;15.480;2023-09-19T10:58:41;99342.88;;;19.24;58.75
51926;BME280;37952;51.938;15.480;2023-09-19T11:01:55;99346.41;;;19.22;58.12
51926;BME280;37952;51.938;15.480;2023-09-19T11:05:12;99338.88;;;19.24;57.97
51926;BME280;37952;51.938;15.480;2023-09-19T11:08:16;99335.05;;;19.22;57.45
51926;BME280;37952;51.938;15.480;2023-09-19T11:14:48;99342.57;;;19.23;56.53
51926;BME280;37952;51.938;15.480;2023-09-19T11:17:51;99341.77;;;19.28;56.58
51926;BME280;37952;51.938;15.480;2023-09-19T11:21:38;99338.31;;;19.35;55.71
51926;BME280;37952;51.938;15.480;2023-09-19T11:24:41;99338.03;;;19.57;55.04
51926;BME280;37952;51.938;15.480;2023-09-19T11:31:41;99316.86;;;19.66;54.70
51926;BME280;37952;51.938;15.480;2023-09-19T11:34:51;99323.09;;;19.80;53.94
51926;BME280;37952;51.938;15.480;2023-09-19T11:47:28;99322.48;;;19.93;50.91
51926;BME280;37952;51.938;15.480;2023-09-19T11:50:32;99316.48;;;19.92;50.99
51926;BME280;37952;51.938;15.480;2023-09-19T11:53:36;99321.53;;;19.93;50.06
51926;BME280;37952;51.938;15.480;2023-09-19T11:56:44;99319.09;;;19.94;49.66
51926;BME280;37952;51.938;15.480;2023-09-19T11:59:48;99317.05;;;19.98;49.95
51926;BME280;37952;51.938;15.480;2023-09-19T12:02:55;99324.68;;;20.12;50.74
51926;BME280;37952;51.938;15.480;2023-09-19T12:05:59;99328.13;;;20.12;49.86
51926;BME280;37952;51.938;15.480;2023-09-19T12:09:02;99327.19;;;20.22;50.83
51926;BME280;37952;51.938;15.480;2023-09-19T12:12:10;99315.65;;;20.34;50.57
51926;BME280;37952;51.938;15.480;2023-09-19T12:15:17;99324.88;;;20.36;50.33
51926;BME280;37952;51.938;15.480;2023-09-19T12:18:34;99319.95;;;20.40;50.52
51926;BME280;37952;51.938;15.480;2023-09-19T12:21:38;99328.02;;;20.35;50.19
51926;BME280;37952;51.938;15.480;2023-09-19T12:24:41;99326.75;;;20.38;51.21
51926;BME280;37952;51.938;15.480;2023-09-19T12:27:48;99327.86;;;20.40;51.31
51926;BME280;37952;51.938;15.480;2023-09-19T12:30:55;99323.64;;;20.37;51.07
51926;BME280;37952;51.938;15.480;2023-09-19T12:33:59;99322.98;;;20.38;51.32
51926;BME280;37952;51.938;15.480;2023-09-19T12:37:14;99324.16;;;20.47;51.23
51926;BME280;37952;51.938;15.480;2023-09-19T12:40:32;99318.50;;;20.63;50.65
51926;BME280;37952;51.938;15.480;2023-09-19T12:43:38;99313.98;;;20.75;50.27
51926;BME280;37952;51.938;15.480;2023-09-19T12:46:42;99316.87;;;20.88;49.49
51926;BME280;37952;51.938;15.480;2023-09-19T12:53:25;99317.98;;;21.07;47.43
51926;BME280;37952;51.938;15.480;2023-09-19T12:56:39;99319.33;;;21.16;46.64
51926;BME280;37952;51.938;15.480;2023-09-19T12:59:43;99325.74;;;21.22;46.58
51926;BME280;37952;51.938;15.480;2023-09-19T13:03:16;99328.91;;;21.25;47.57
51926;BME280;37952;51.938;15.480;2023-09-19T13:06:35;99321.92;;;21.20;47.06
51926;BME280;37952;51.938;15.480;2023-09-19T13:10:04;99324.88;;;21.22;47.81
51926;BME280;37952;51.938;15.480;2023-09-19T13:13:23;99338.50;;;21.37;46.89
51926;BME280;37952;51.938;15.480;2023-09-19T13:16:30;99335.48;;;21.42;46.48
51926;BME280;37952;51.938;15.480;2023-09-19T13:19:35;99332.10;;;21.53;47.31
51926;BME280;37952;51.938;15.480;2023-09-19T13:22:41;99341.26;;;21.53;46.68
51926;BME280;37952;51.938;15.480;2023-09-19T13:25:52;99344.65;;;21.45;44.94
51926;BME280;37952;51.938;15.480;2023-09-19T13:28:55;99340.02;;;21.41;44.03
51926;BME280;37952;51.938;15.480;2023-09-19T13:31:58;99345.69;;;21.29;42.39
51926;BME280;37952;51.938;15.480;2023-09-19T13:35:01;99348.90;;;21.03;42.62
51926;BME280;37952;51.938;15.480;2023-09-19T13:38:04;99349.25;;;20.98;42.94
51926;BME280;37952;51.938;15.480;2023-09-19T13:41:07;99344.46;;;21.04;43.84
51926;BME280;37952;51.938;15.480;2023-09-19T13:44:10;99341.17;;;21.15;43.45
51926;BME280;37952;51.938;15.480;2023-09-19T13:47:16;99337.73;;;21.24;43.71
51926;BME280;37952;51.938;15.480;2023-09-19T13:50:27;99340.37;;;21.35;43.39
51926;BME280;37952;51.938;15.480;2023-09-19T13:53:31;99348.73;;;21.42;43.36
51926;BME280;37952;51.938;15.480;2023-09-19T13:56:34;99339.05;;;21.48;43.84
51926;BME280;37952;51.938;15.480;2023-09-19T13:59:39;99343.96;;;21.62;43.94
51926;BME280;37952;51.938;15.480;2023-09-19T14:02:42;99347.97;;;21.72;44.29
51926;BME280;37952;51.938;15.480;2023-09-19T14:05:49;99343.23;;;21.80;43.86
51926;BME280;37952;51.938;15.480;2023-09-19T14:08:54;99344.75;;;21.82;43.28
51926;BME280;37952;51.938;15.480;2023-09-19T14:11:58;99333.32;;;21.82;43.25
51926;BME280;37952;51.938;15.480;2023-09-19T14:15:00;99336.38;;;21.86;43.99
51926;BME280;37952;51.938;15.480;2023-09-19T14:18:04;99341.61;;;21.92;43.54
51926;BME280;37952;51.938;15.480;2023-09-19T14:21:07;99347.33;;;21.54;41.67
51926;BME280;37952;51.938;15.480;2023-09-19T14:24:19;99344.20;;;21.52;43.71
51926;BME280;37952;51.938;15.480;2023-09-19T14:27:22;99344.84;;;21.60;43.91
51926;BME280;37952;51.938;15.480;2023-09-19T14:30:25;99347.75;;;21.63;43.23
51926;BME280;37952;51.938;15.480;2023-09-19T14:33:28;99351.95;;;21.61;42.77
51926;BME280;37952;51.938;15.480;2023-09-19T14:36:31;99348.02;;;21.58;42.77
51926;BME280;37952;51.938;15.480;2023-09-19T14:39:35;99351.33;;;21.55;42.86
51926;BME280;37952;51.938;15.480;2023-09-19T14:42:39;99338.02;;;21.46;43.19
51926;BME280;37952;51.938;15.480;2023-09-19T14:45:42;99348.59;;;21.51;43.74
51926;BME280;37952;51.938;15.480;2023-09-19T14:48:45;99353.15;;;21.44;42.78
51926;BME280;37952;51.938;15.480;2023-09-19T14:51:51;99351.92;;;21.34;43.61
51926;BME280;37952;51.938;15.480;2023-09-19T14:54:55;99349.13;;;21.35;44.63
51926;BME280;37952;51.938;15.480;2023-09-19T14:57:57;99354.27;;;21.45;44.77
51926;BME280;37952;51.938;15.480;2023-09-19T15:01:07;99349.39;;;21.47;45.17
51926;BME280;37952;51.938;15.480;2023-09-19T15:04:10;99351.27;;;21.51;44.47
51926;BME280;37952;51.938;15.480;2023-09-19T15:07:13;99353.88;;;21.47;44.20
51926;BME280;37952;51.938;15.480;2023-09-19T15:10:17;99349.41;;;21.39;44.02
51926;BME280;37952;51.938;15.480;2023-09-19T15:13:21;99348.64;;;21.31;44.44
51926;BME280;37952;51.938;15.480;2023-09-19T15:16:24;99349.20;;;21.30;44.14
51926;BME280;37952;51.938;15.480;2023-09-19T15:19:27;99350.03;;;21.19;44.01
51926;BME280;37952;51.938;15.480;2023-09-19T15:22:30;99348.48;;;21.15;45.02
51926;BME280;37952;51.938;15.480;2023-09-19T15:25:32;99351.09;;;21.14;44.65
51926;BME280;37952;51.938;15.480;2023-09-19T15:28:38;99345.63;;;21.09;44.42
51926;BME280;37952;51.938;15.480;2023-09-19T15:31:48;99347.65;;;21.05;45.35
51926;BME280;37952;51.938;15.480;2023-09-19T15:34:52;99341.80;;;21.07;45.95
51926;BME280;37952;51.938;15.480;2023-09-19T15:37:55;99340.63;;;21.15;45.91
51926;BME280;37952;51.938;15.480;2023-09-19T15:40:58;99346.07;;;21.17;45.80
51926;BME280;37952;51.938;15.480;2023-09-19T15:44:03;99347.79;;;21.17;46.05
51926;BME280;37952;51.938;15.480;2023-09-19T15:47:06;99345.91;;;21.19;46.45
51926;BME280;37952;51.938;15.480;2023-09-19T15:50:09;99351.82;;;21.25;46.35
51926;BME280;37952;51.938;15.480;2023-09-19T15:53:13;99349.17;;;21.28;46.65
51926;BME280;37952;51.938;15.480;2023-09-19T15:56:16;99353.17;;;21.32;46.27
51926;BME280;37952;51.938;15.480;2023-09-19T15:59:19;99356.52;;;21.25;46.35
51926;BME280;37952;51.938;15.480;2023-09-19T16:02:22;99360.23;;;21.20;46.70
51926;BME280;37952;51.938;15.480;2023-09-19T16:05:25;99357.94;;;21.19;47.09
51926;BME280;37952;51.938;15.480;2023-09-19T16:08:28;99360.48;;;21.18;47.33
51926;BME280;37952;51.938;15.480;2023-09-19T16:11:33;99362.57;;;21.19;47.50
51926;BME280;37952;51.938;15.480;2023-09-19T16:14:36;99361.23;;;21.21;47.51
51926;BME280;37952;51.938;15.480;2023-09-19T16:17:40;99362.89;;;21.21;47.74
51926;BME280;37952;51.938;15.480;2023-09-19T16:20:46;99367.33;;;21.21;47.61
51926;BME280;37952;51.938;15.480;2023-09-19T16:23:50;99365.39;;;21.18;47.71
51926;BME280;37952;51.938;15.480;2023-09-19T16:26:53;99363.05;;;21.11;47.54
51926;BME280;37952;51.938;15.480;2023-09-19T16:29:56;99362.75;;;21.01;47.36
51926;BME280;37952;51.938;15.480;2023-09-19T16:32:59;99363.27;;;20.81;46.51
51926;BME280;37952;51.938;15.480;2023-09-19T16:36:06;99368.82;;;20.68;47.02
51926;BME280;37952;51.938;15.480;2023-09-19T16:39:10;99368.43;;;20.53;46.80
51926;BME280;37952;51.938;15.480;2023-09-19T16:42:13;99361.90;;;20.41;46.99
51926;BME280;37952;51.938;15.480;2023-09-19T16:45:22;99367.09;;;20.33;47.21